sensor_id;sensor_type;location;lat;lon;timestamp;pressure;altitude;pressure_sealevel;temperature;humidity
62038;BME280;47991;42.974;12.082;2023-06-22T00:01:20;98179.83;;;19.43;65.03
62038;BME280;47991;42.974;12.082;2023-06-22T00:03:47;98178.21;;;19.37;65.59
62038;BME280;47991;42.974;12.082;2023-06-22T00:06:14;98182.81;;;19.32;65.88
62038;BME280;47991;42.974;12.082;2023-06-22T00:08:41;98182.52;;;19.31;65.63
62038;BME280;47991;42.974;12.082;2023-06-22T00:11:08;98187.08;;;19.29;65.74
62038;BME280;47991;42.974;12.082;2023-06-22T00:13:35;98187.13;;;19.25;65.97
62038;BME280;47991;42.974;12.082;2023-06-22T00:16:02;98188.79;;;19.18;65.81
62038;BME280;47991;42.974;12.082;2023-06-22T00:18:29;98190.23;;;19.12;66.69
62038;BME280;47991;42.974;12.082;2023-06-22T00:20:57;98190.41;;;19.09;66.56
62038;BME280;47991;42.974;12.082;2023-06-22T00:23:25;98185.14;;;19.06;66.22
62038;BME280;47991;42.974;12.082;2023-06-22T00:25:52;98188.42;;;19.02;66.38
62038;BME280;47991;42.974;12.082;2023-06-22T00:28:19;98182.88;;;18.99;66.73
62038;BME280;47991;42.974;12.082;2023-06-22T00:30:46;98180.50;;;19.00;66.69
62038;BME280;47991;42.974;12.082;2023-06-22T00:33:14;98183.12;;;18.98;66.96
62038;BME280;47991;42.974;12.082;2023-06-22T00:35:42;98182.37;;;18.98;66.86
62038;BME280;47991;42.974;12.082;2023-06-22T00:38:09;98179.79;;;19.00;67.11
62038;BME280;47991;42.974;12.082;2023-06-22T00:40:36;98177.52;;;18.99;66.97
62038;BME280;47991;42.974;12.082;2023-06-22T00:43:04;98178.67;;;18.97;66.93
62038;BME280;47991;42.974;12.082;2023-06-22T00:45:31;98173.66;;;18.94;66.85
62038;BME280;47991;42.974;12.082;2023-06-22T00:47:59;98176.91;;;18.90;67.20
62038;BME280;47991;42.974;12.082;2023-06-22T00:50:28;98173.02;;;18.82;67.63
62038;BME280;47991;42.974;12.082;2023-06-22T00:53:07;98168.35;;;18.79;67.43
62038;BME280;47991;42.974;12.082;2023-06-22T00:55:42;98166.95;;;18.76;67.71
62038;BME280;47991;42.974;12.082;2023-06-22T00:58:14;98169.52;;;18.68;67.93
62038;BME280;47991;42.974;12.082;2023-06-22T01:00:41;98166.38;;;18.66;67.68
62038;BME280;47991;42.974;12.082;2023-06-22T01:03:08;98168.05;;;18.65;67.97
62038;BME280;47991;42.974;12.082;2023-06-22T01:05:37;98163.91;;;18.62;68.33
62038;BME280;47991;42.974;12.082;2023-06-22T01:08:12;98154.58;;;18.56;68.20
62038;BME280;47991;42.974;12.082;2023-06-22T01:10:50;98156.79;;;18.45;68.75
62038;BME280;47991;42.974;12.082;2023-06-22T01:15:57;98152.86;;;18.35;68.86
62038;BME280;47991;42.974;12.082;2023-06-22T01:18:29;98155.61;;;18.40;68.65
62038;BME280;47991;42.974;12.082;2023-06-22T01:20:57;98157.43;;;18.40;68.96
62038;BME280;47991;42.974;12.082;2023-06-22T01:23:56;98155.73;;;18.35;68.65
62038;BME280;47991;42.974;12.082;2023-06-22T01:26:37;98153.63;;;18.30;68.86
62038;BME280;47991;42.974;12.082;2023-06-22T01:29:05;98159.45;;;18.22;69.30
62038;BME280;47991;42.974;12.082;2023-06-22T01:31:34;98161.56;;;18.13;69.52
62038;BME280;47991;42.974;12.082;2023-06-22T01:34:04;98159.08;;;18.08;69.36
62038;BME280;47991;42.974;12.082;2023-06-22T01:36:33;98162.23;;;18.03;69.66
62038;BME280;47991;42.974;12.082;2023-06-22T01:39:02;98161.13;;;18.00;69.99
62038;BME280;47991;42.974;12.082;2023-06-22T01:41:33;98159.90;;;17.96;69.92
62038;BME280;47991;42.974;12.082;2023-06-22T01:44:01;98156.03;;;17.91;70.08
62038;BME280;47991;42.974;12.082;2023-06-22T01:46:29;98153.18;;;17.87;69.62
62038;BME280;47991;42.974;12.082;2023-06-22T01:48:57;98157.22;;;17.82;70.18
62038;BME280;47991;42.974;12.082;2023-06-22T01:51:24;98154.88;;;17.82;70.22
62038;BME280;47991;42.974;12.082;2023-06-22T01:53:51;98150.34;;;17.80;70.07
62038;BME280;47991;42.974;12.082;2023-06-22T01:56:18;98149.67;;;17.75;70.56
62038;BME280;47991;42.974;12.082;2023-06-22T01:58:51;98150.42;;;17.74;70.07
62038;BME280;47991;42.974;12.082;2023-06-22T02:01:25;98149.14;;;17.75;70.20
62038;BME280;47991;42.974;12.082;2023-06-22T02:04:03;98152.45;;;17.77;70.40
62038;BME280;47991;42.974;12.082;2023-06-22T02:06:36;98155.22;;;17.72;70.45
62038;BME280;47991;42.974;12.082;2023-06-22T02:09:12;98152.95;;;17.70;70.57
62038;BME280;47991;42.974;12.082;2023-06-22T02:11:42;98155.62;;;17.71;70.37
62038;BME280;47991;42.974;12.082;2023-06-22T02:14:11;98152.85;;;17.65;70.45
62038;BME280;47991;42.974;12.082;2023-06-22T02:16:39;98151.90;;;17.56;70.42
62038;BME280;47991;42.974;12.082;2023-06-22T02:19:07;98150.21;;;17.54;70.59
62038;BME280;47991;42.974;12.082;2023-06-22T02:21:34;98150.48;;;17.55;70.85
62038;BME280;47991;42.974;12.082;2023-06-22T02:24:02;98148.86;;;17.56;70.65
62038;BME280;47991;42.974;12.082;2023-06-22T02:26:29;98151.13;;;17.64;70.53
62038;BME280;47991;42.974;12.082;2023-06-22T02:28:56;98148.58;;;17.79;70.21
62038;BME280;47991;42.974;12.082;2023-06-22T02:31:23;98143.63;;;17.92;70.56
62038;BME280;47991;42.974;12.082;2023-06-22T02:33:58;98142.95;;;18.02;70.36
62038;BME280;47991;42.974;12.082;2023-06-22T02:36:25;98147.78;;;18.06;70.26
62038;BME280;47991;42.974;12.082;2023-06-22T02:38:54;98148.61;;;18.03;70.30
62038;BME280;47991;42.974;12.082;2023-06-22T02:41:24;98151.40;;;17.88;70.56
62038;BME280;47991;42.974;12.082;2023-06-22T02:43:51;98156.77;;;17.77;70.72
62038;BME280;47991;42.974;12.082;2023-06-22T02:46:18;98161.00;;;17.70;70.83
62038;BME280;47991;42.974;12.082;2023-06-22T02:48:45;98160.13;;;17.70;70.46
62038;BME280;47991;42.974;12.082;2023-06-22T02:51:12;98161.29;;;17.68;70.51
62038;BME280;47991;42.974;12.082;2023-06-22T02:53:38;98166.19;;;17.67;70.63
62038;BME280;47991;42.974;12.082;2023-06-22T02:56:05;98165.95;;;17.61;70.81
62038;BME280;47991;42.974;12.082;2023-06-22T02:58:32;98170.33;;;17.56;70.92
62038;BME280;47991;42.974;12.082;2023-06-22T03:01:05;98168.14;;;17.49;71.44
62038;BME280;47991;42.974;12.082;2023-06-22T03:03:32;98173.23;;;17.44;71.63
62038;BME280;47991;42.974;12.082;2023-06-22T03:05:59;98173.39;;;17.45;71.39
62038;BME280;47991;42.974;12.082;2023-06-22T03:08:28;98171.27;;;17.40;71.62
62038;BME280;47991;42.974;12.082;2023-06-22T03:10:55;98172.78;;;17.35;71.64
62038;BME280;47991;42.974;12.082;2023-06-22T03:13:23;98170.41;;;17.25;71.98
62038;BME280;47991;42.974;12.082;2023-06-22T03:15:50;98166.48;;;17.18;72.27
62038;BME280;47991;42.974;12.082;2023-06-22T03:18:17;98165.08;;;17.14;72.49
62038;BME280;47991;42.974;12.082;2023-06-22T03:20:44;98164.87;;;17.10;72.57
62038;BME280;47991;42.974;12.082;2023-06-22T03:23:11;98159.02;;;17.06;72.32
62038;BME280;47991;42.974;12.082;2023-06-22T03:25:37;98160.20;;;17.07;72.43
62038;BME280;47991;42.974;12.082;2023-06-22T03:28:04;98156.52;;;17.10;72.53
62038;BME280;47991;42.974;12.082;2023-06-22T03:30:31;98156.81;;;17.07;72.77
62038;BME280;47991;42.974;12.082;2023-06-22T03:32:58;98154.28;;;17.04;72.73
62038;BME280;47991;42.974;12.082;2023-06-22T03:35:25;98153.39;;;17.04;72.89
62038;BME280;47991;42.974;12.082;2023-06-22T03:37:52;98153.54;;;17.05;72.72
62038;BME280;47991;42.974;12.082;2023-06-22T03:40:19;98155.52;;;17.08;73.12
62038;BME280;47991;42.974;12.082;2023-06-22T03:42:46;98159.61;;;17.16;72.61
62038;BME280;47991;42.974;12.082;2023-06-22T03:45:13;98157.89;;;17.22;72.92
62038;BME280;47991;42.974;12.082;2023-06-22T03:47:40;98160.48;;;17.20;72.76
62038;BME280;47991;42.974;12.082;2023-06-22T03:50:07;98162.02;;;17.11;72.88
62038;BME280;47991;42.974;12.082;2023-06-22T03:52:35;98165.13;;;17.01;73.24
62038;BME280;47991;42.974;12.082;2023-06-22T03:55:01;98159.52;;;16.95;73.32
62038;BME280;47991;42.974;12.082;2023-06-22T03:57:29;98164.56;;;16.91;73.27
62038;BME280;47991;42.974;12.082;2023-06-22T03:59:57;98163.02;;;16.93;73.01
62038;BME280;47991;42.974;12.082;2023-06-22T04:02:24;98164.95;;;16.98;73.10
62038;BME280;47991;42.974;12.082;2023-06-22T04:04:52;98163.27;;;16.95;73.38
62038;BME280;47991;42.974;12.082;2023-06-22T04:07:19;98162.68;;;16.97;73.57
62038;BME280;47991;42.974;12.082;2023-06-22T04:09:45;98163.05;;;17.00;73.46
62038;BME280;47991;42.974;12.082;2023-06-22T04:12:13;98164.00;;;17.07;73.41
62038;BME280;47991;42.974;12.082;2023-06-22T04:14:40;98162.63;;;17.12;73.42
62038;BME280;47991;42.974;12.082;2023-06-22T04:17:06;98158.10;;;17.25;73.49
62038;BME280;47991;42.974;12.082;2023-06-22T04:19:33;98157.98;;;17.34;73.35
62038;BME280;47991;42.974;12.082;2023-06-22T04:22:00;98155.89;;;17.37;73.35
62038;BME280;47991;42.974;12.082;2023-06-22T04:24:27;98157.38;;;17.36;73.31
62038;BME280;47991;42.974;12.082;2023-06-22T04:26:54;98156.43;;;17.44;73.46
62038;BME280;47991;42.974;12.082;2023-06-22T04:29:21;98155.66;;;17.59;72.56
62038;BME280;47991;42.974;12.082;2023-06-22T04:31:56;98155.48;;;17.70;72.53
62038;BME280;47991;42.974;12.082;2023-06-22T04:34:25;98157.98;;;17.84;72.35
62038;BME280;47991;42.974;12.082;2023-06-22T04:36:53;98157.41;;;17.96;72.09
62038;BME280;47991;42.974;12.082;2023-06-22T04:39:20;98151.61;;;18.04;71.82
62038;BME280;47991;42.974;12.082;2023-06-22T04:41:47;98150.06;;;18.16;71.93
62038;BME280;47991;42.974;12.082;2023-06-22T04:44:16;98148.38;;;18.28;71.61
62038;BME280;47991;42.974;12.082;2023-06-22T04:46:55;98142.09;;;18.35;71.57
62038;BME280;47991;42.974;12.082;2023-06-22T04:49:27;98143.00;;;18.45;71.15
62038;BME280;47991;42.974;12.082;2023-06-22T04:52:07;98142.48;;;18.61;70.90
62038;BME280;47991;42.974;12.082;2023-06-22T04:54:36;98147.30;;;18.78;70.54
62038;BME280;47991;42.974;12.082;2023-06-22T04:57:04;98150.49;;;18.95;70.14
62038;BME280;47991;42.974;12.082;2023-06-22T04:59:34;98151.27;;;19.16;69.81
62038;BME280;47991;42.974;12.082;2023-06-22T05:02:01;98154.61;;;19.36;69.80
62038;BME280;47991;42.974;12.082;2023-06-22T05:04:30;98152.00;;;19.53;69.27
62038;BME280;47991;42.974;12.082;2023-06-22T05:07:00;98153.94;;;19.75;69.05
62038;BME280;47991;42.974;12.082;2023-06-22T05:09:27;98158.98;;;19.96;68.70
62038;BME280;47991;42.974;12.082;2023-06-22T05:11:54;98160.42;;;20.11;68.28
62038;BME280;47991;42.974;12.082;2023-06-22T05:14:21;98164.95;;;20.31;68.16
62038;BME280;47991;42.974;12.082;2023-06-22T05:16:48;98166.25;;;20.53;67.52
62038;BME280;47991;42.974;12.082;2023-06-22T05:19:16;98165.08;;;20.79;67.24
62038;BME280;47991;42.974;12.082;2023-06-22T05:21:43;98162.68;;;21.05;66.17
62038;BME280;47991;42.974;12.082;2023-06-22T05:24:10;98165.56;;;21.27;65.78
62038;BME280;47991;42.974;12.082;2023-06-22T05:26:37;98165.84;;;21.42;65.49
62038;BME280;47991;42.974;12.082;2023-06-22T05:29:04;98164.66;;;21.46;65.51
62038;BME280;47991;42.974;12.082;2023-06-22T05:31:31;98163.72;;;21.61;65.53
62038;BME280;47991;42.974;12.082;2023-06-22T05:33:58;98163.36;;;21.71;65.17
62038;BME280;47991;42.974;12.082;2023-06-22T05:36:26;98166.89;;;21.83;65.18
62038;BME280;47991;42.974;12.082;2023-06-22T05:38:53;98169.91;;;21.97;65.01
62038;BME280;47991;42.974;12.082;2023-06-22T05:41:20;98171.88;;;22.08;65.27
62038;BME280;47991;42.974;12.082;2023-06-22T05:43:47;98175.13;;;22.08;65.94
62038;BME280;47991;42.974;12.082;2023-06-22T05:46:14;98178.36;;;21.92;67.53
62038;BME280;47991;42.974;12.082;2023-06-22T05:48:41;98178.85;;;21.82;67.82
62038;BME280;47991;42.974;12.082;2023-06-22T05:51:08;98177.33;;;21.78;67.49
62038;BME280;47991;42.974;12.082;2023-06-22T05:53:34;98177.05;;;21.79;67.60
62038;BME280;47991;42.974;12.082;2023-06-22T05:56:01;98173.77;;;21.83;67.17
62038;BME280;47991;42.974;12.082;2023-06-22T05:58:28;98175.55;;;21.96;67.53
62038;BME280;47991;42.974;12.082;2023-06-22T06:00:55;98175.79;;;22.24;66.60
62038;BME280;47991;42.974;12.082;2023-06-22T06:03:22;98174.19;;;22.55;65.60
62038;BME280;47991;42.974;12.082;2023-06-22T06:05:49;98164.27;;;22.83;65.15
62038;BME280;47991;42.974;12.082;2023-06-22T06:08:16;98165.40;;;23.00;63.71
62038;BME280;47991;42.974;12.082;2023-06-22T06:10:43;98166.92;;;23.07;63.12
62038;BME280;47991;42.974;12.082;2023-06-22T06:13:10;98168.88;;;22.99;63.59
62038;BME280;47991;42.974;12.082;2023-06-22T06:15:37;98169.70;;;23.06;64.03
62038;BME280;47991;42.974;12.082;2023-06-22T06:18:05;98171.81;;;23.28;63.89
62038;BME280;47991;42.974;12.082;2023-06-22T06:20:32;98171.08;;;23.51;62.88
62038;BME280;47991;42.974;12.082;2023-06-22T06:30:53;98177.33;;;23.46;63.14
62038;BME280;47991;42.974;12.082;2023-06-22T06:33:19;98177.86;;;23.52;62.97
62038;BME280;47991;42.974;12.082;2023-06-22T06:35:46;98179.58;;;23.60;62.63
62038;BME280;47991;42.974;12.082;2023-06-22T06:38:13;98182.41;;;23.58;63.26
62038;BME280;47991;42.974;12.082;2023-06-22T06:40:39;98187.06;;;23.61;62.76
62038;BME280;47991;42.974;12.082;2023-06-22T06:43:05;98187.16;;;23.65;63.36
62038;BME280;47991;42.974;12.082;2023-06-22T06:45:31;98186.54;;;23.80;63.15
62038;BME280;47991;42.974;12.082;2023-06-22T06:48:00;98182.38;;;24.09;62.18
62038;BME280;47991;42.974;12.082;2023-06-22T06:50:27;98181.40;;;24.27;61.61
62038;BME280;47991;42.974;12.082;2023-06-22T06:52:53;98183.36;;;24.48;62.19
62038;BME280;47991;42.974;12.082;2023-06-22T06:55:20;98183.24;;;24.64;60.73
62038;BME280;47991;42.974;12.082;2023-06-22T06:57:46;98180.69;;;24.69;60.91
62038;BME280;47991;42.974;12.082;2023-06-22T07:00:15;98178.30;;;24.87;60.27
62038;BME280;47991;42.974;12.082;2023-06-22T07:02:43;98172.83;;;24.88;60.17
62038;BME280;47991;42.974;12.082;2023-06-22T07:05:11;98173.17;;;24.99;60.90
62038;BME280;47991;42.974;12.082;2023-06-22T07:07:38;98170.92;;;25.07;60.48
62038;BME280;47991;42.974;12.082;2023-06-22T07:10:06;98176.42;;;25.19;59.77
62038;BME280;47991;42.974;12.082;2023-06-22T07:12:32;98173.85;;;25.13;59.64
62038;BME280;47991;42.974;12.082;2023-06-22T07:15:09;98175.11;;;25.20;59.81
62038;BME280;47991;42.974;12.082;2023-06-22T07:17:36;98172.64;;;25.13;60.01
62038;BME280;47991;42.974;12.082;2023-06-22T07:20:03;98174.88;;;25.30;59.99
62038;BME280;47991;42.974;12.082;2023-06-22T07:22:38;98176.08;;;25.66;59.35
62038;BME280;47991;42.974;12.082;2023-06-22T07:25:05;98178.77;;;25.96;58.70
62038;BME280;47991;42.974;12.082;2023-06-22T07:27:37;98173.66;;;26.27;57.97
62038;BME280;47991;42.974;12.082;2023-06-22T07:30:04;98173.30;;;26.47;57.61
62038;BME280;47991;42.974;12.082;2023-06-22T07:32:31;98174.20;;;26.54;57.77
62038;BME280;47991;42.974;12.082;2023-06-22T07:34:57;98174.70;;;26.54;57.10
62038;BME280;47991;42.974;12.082;2023-06-22T07:37:23;98174.77;;;26.60;56.73
62038;BME280;47991;42.974;12.082;2023-06-22T07:39:50;98169.98;;;26.48;56.92
62038;BME280;47991;42.974;12.082;2023-06-22T07:42:19;98167.74;;;26.59;56.95
62038;BME280;47991;42.974;12.082;2023-06-22T07:44:45;98166.46;;;26.64;56.80
62038;BME280;47991;42.974;12.082;2023-06-22T07:47:12;98162.02;;;26.69;57.07
62038;BME280;47991;42.974;12.082;2023-06-22T07:49:38;98161.38;;;26.49;57.03
62038;BME280;47991;42.974;12.082;2023-06-22T07:52:04;98160.74;;;26.42;57.95
62038;BME280;47991;42.974;12.082;2023-06-22T07:54:31;98152.52;;;26.68;58.19
62038;BME280;47991;42.974;12.082;2023-06-22T07:56:57;98147.15;;;26.94;57.16
62038;BME280;47991;42.974;12.082;2023-06-22T07:59:23;98143.02;;;27.13;56.75
62038;BME280;47991;42.974;12.082;2023-06-22T08:01:49;98142.88;;;27.33;55.65
62038;BME280;47991;42.974;12.082;2023-06-22T08:04:16;98139.34;;;27.38;55.09
62038;BME280;47991;42.974;12.082;2023-06-22T08:06:42;98143.91;;;27.54;55.91
62038;BME280;47991;42.974;12.082;2023-06-22T08:09:09;98142.94;;;27.68;54.94
62038;BME280;47991;42.974;12.082;2023-06-22T08:11:35;98145.02;;;27.83;55.62
62038;BME280;47991;42.974;12.082;2023-06-22T08:14:02;98144.27;;;27.97;55.02
62038;BME280;47991;42.974;12.082;2023-06-22T08:16:28;98146.11;;;27.95;53.55
62038;BME280;47991;42.974;12.082;2023-06-22T08:18:54;98139.90;;;28.15;53.87
62038;BME280;47991;42.974;12.082;2023-06-22T08:21:21;98140.78;;;28.34;53.25
62038;BME280;47991;42.974;12.082;2023-06-22T08:23:48;98138.17;;;28.44;53.99
62038;BME280;47991;42.974;12.082;2023-06-22T08:26:14;98137.30;;;28.65;53.37
62038;BME280;47991;42.974;12.082;2023-06-22T08:28:41;98137.55;;;28.88;53.29
62038;BME280;47991;42.974;12.082;2023-06-22T08:31:08;98138.97;;;29.21;52.49
62038;BME280;47991;42.974;12.082;2023-06-22T08:33:34;98144.62;;;29.48;51.90
62038;BME280;47991;42.974;12.082;2023-06-22T08:36:01;98145.96;;;29.69;51.46
62038;BME280;47991;42.974;12.082;2023-06-22T08:38:34;98144.81;;;29.88;50.14
62038;BME280;47991;42.974;12.082;2023-06-22T08:41:01;98144.97;;;29.85;50.19
62038;BME280;47991;42.974;12.082;2023-06-22T08:43:27;98142.36;;;29.94;50.16
62038;BME280;47991;42.974;12.082;2023-06-22T08:45:53;98138.54;;;30.10;51.05
62038;BME280;47991;42.974;12.082;2023-06-22T08:48:20;98132.86;;;30.21;49.96
62038;BME280;47991;42.974;12.082;2023-06-22T08:50:46;98130.38;;;30.17;49.59
62038;BME280;47991;42.974;12.082;2023-06-22T08:53:13;98131.36;;;30.16;50.36
62038;BME280;47991;42.974;12.082;2023-06-22T08:55:39;98123.31;;;30.38;49.74
62038;BME280;47991;42.974;12.082;2023-06-22T08:58:05;98117.76;;;30.56;50.46
62038;BME280;47991;42.974;12.082;2023-06-22T09:00:32;98120.05;;;30.27;50.02
62038;BME280;47991;42.974;12.082;2023-06-22T09:03:01;98119.66;;;29.79;50.66
62038;BME280;47991;42.974;12.082;2023-06-22T09:05:27;98121.36;;;29.75;50.72
62038;BME280;47991;42.974;12.082;2023-06-22T09:07:55;98119.11;;;29.63;50.85
62038;BME280;47991;42.974;12.082;2023-06-22T09:10:22;98119.75;;;29.75;51.93
62038;BME280;47991;42.974;12.082;2023-06-22T09:12:48;98121.51;;;30.02;50.98
62038;BME280;47991;42.974;12.082;2023-06-22T09:15:14;98115.44;;;30.26;50.63
62038;BME280;47991;42.974;12.082;2023-06-22T09:17:41;98116.55;;;30.62;50.82
62038;BME280;47991;42.974;12.082;2023-06-22T09:20:08;98106.48;;;30.85;48.63
62038;BME280;47991;42.974;12.082;2023-06-22T09:22:36;98106.70;;;30.97;48.90
62038;BME280;47991;42.974;12.082;2023-06-22T09:25:03;98104.31;;;31.19;48.31
62038;BME280;47991;42.974;12.082;2023-06-22T09:27:31;98108.71;;;31.24;47.01
62038;BME280;47991;42.974;12.082;2023-06-22T09:29:57;98108.91;;;31.26;48.15
62038;BME280;47991;42.974;12.082;2023-06-22T09:32:25;98106.10;;;31.11;49.02
62038;BME280;47991;42.974;12.082;2023-06-22T09:34:52;98107.57;;;31.17;47.90
62038;BME280;47991;42.974;12.082;2023-06-22T09:37:19;98107.13;;;30.96;45.86
62038;BME280;47991;42.974;12.082;2023-06-22T09:39:46;98107.86;;;30.98;47.76
62038;BME280;47991;42.974;12.082;2023-06-22T09:42:12;98108.47;;;31.23;46.23
62038;BME280;47991;42.974;12.082;2023-06-22T09:44:39;98109.20;;;31.42;47.13
62038;BME280;47991;42.974;12.082;2023-06-22T09:47:06;98111.11;;;31.83;46.55
62038;BME280;47991;42.974;12.082;2023-06-22T09:49:32;98103.86;;;32.20;44.28
62038;BME280;47991;42.974;12.082;2023-06-22T09:51:59;98103.48;;;32.50;43.75
62038;BME280;47991;42.974;12.082;2023-06-22T09:54:25;98103.37;;;32.51;43.21
62038;BME280;47991;42.974;12.082;2023-06-22T09:56:51;98101.55;;;32.47;43.52
62038;BME280;47991;42.974;12.082;2023-06-22T09:59:18;98098.24;;;32.54;44.59
62038;BME280;47991;42.974;12.082;2023-06-22T10:01:44;98096.70;;;32.41;44.72
62038;BME280;47991;42.974;12.082;2023-06-22T10:04:10;98093.11;;;32.28;44.11
62038;BME280;47991;42.974;12.082;2023-06-22T10:06:37;98090.72;;;32.28;44.57
62038;BME280;47991;42.974;12.082;2023-06-22T10:09:07;98088.78;;;32.37;43.08
62038;BME280;47991;42.974;12.082;2023-06-22T10:11:33;98084.03;;;32.58;41.52
62038;BME280;47991;42.974;12.082;2023-06-22T10:14:01;98083.21;;;32.82;39.37
62038;BME280;47991;42.974;12.082;2023-06-22T10:16:31;98085.05;;;33.10;39.72
62038;BME280;47991;42.974;12.082;2023-06-22T10:18:59;98083.39;;;32.94;37.79
62038;BME280;47991;42.974;12.082;2023-06-22T10:21:25;98082.13;;;32.99;39.22
62038;BME280;47991;42.974;12.082;2023-06-22T10:23:52;98082.86;;;33.18;38.92
62038;BME280;47991;42.974;12.082;2023-06-22T10:26:19;98085.41;;;33.49;39.41
62038;BME280;47991;42.974;12.082;2023-06-22T10:28:45;98089.02;;;33.73;36.86
62038;BME280;47991;42.974;12.082;2023-06-22T10:31:11;98085.38;;;33.87;36.43
62038;BME280;47991;42.974;12.082;2023-06-22T10:33:37;98078.48;;;34.00;35.05
62038;BME280;47991;42.974;12.082;2023-06-22T10:36:04;98078.14;;;34.15;34.50
62038;BME280;47991;42.974;12.082;2023-06-22T10:38:30;98075.24;;;34.24;34.09
62038;BME280;47991;42.974;12.082;2023-06-22T10:40:56;98074.91;;;34.33;32.55
62038;BME280;47991;42.974;12.082;2023-06-22T10:43:23;98076.30;;;34.38;31.07
62038;BME280;47991;42.974;12.082;2023-06-22T10:45:49;98078.00;;;34.38;29.93
62038;BME280;47991;42.974;12.082;2023-06-22T10:48:15;98076.32;;;34.42;29.78
62038;BME280;47991;42.974;12.082;2023-06-22T10:50:41;98073.84;;;34.49;30.38
62038;BME280;47991;42.974;12.082;2023-06-22T10:53:07;98072.85;;;34.51;29.27
62038;BME280;47991;42.974;12.082;2023-06-22T10:55:33;98073.65;;;34.45;29.36
62038;BME280;47991;42.974;12.082;2023-06-22T10:58:00;98071.66;;;34.53;28.44
62038;BME280;47991;42.974;12.082;2023-06-22T11:00:27;98070.17;;;34.19;28.73
62038;BME280;47991;42.974;12.082;2023-06-22T11:02:53;98067.11;;;34.27;28.75
62038;BME280;47991;42.974;12.082;2023-06-22T11:05:19;98067.55;;;34.36;29.47
62038;BME280;47991;42.974;12.082;2023-06-22T11:07:45;98068.75;;;34.42;27.95
62038;BME280;47991;42.974;12.082;2023-06-22T11:10:12;98066.05;;;34.51;29.01
62038;BME280;47991;42.974;12.082;2023-06-22T11:12:39;98068.33;;;34.26;28.10
62038;BME280;47991;42.974;12.082;2023-06-22T11:15:06;98067.50;;;33.98;28.87
62038;BME280;47991;42.974;12.082;2023-06-22T11:17:32;98067.12;;;34.06;28.78
62038;BME280;47991;42.974;12.082;2023-06-22T11:19:58;98063.11;;;34.21;29.99
62038;BME280;47991;42.974;12.082;2023-06-22T11:22:26;98062.34;;;34.33;30.05
62038;BME280;47991;42.974;12.082;2023-06-22T11:24:52;98055.51;;;34.26;29.38
62038;BME280;47991;42.974;12.082;2023-06-22T11:27:18;98053.05;;;34.30;29.82
62038;BME280;47991;42.974;12.082;2023-06-22T11:29:45;98050.23;;;34.29;30.66
62038;BME280;47991;42.974;12.082;2023-06-22T11:32:11;98045.59;;;34.46;31.11
62038;BME280;47991;42.974;12.082;2023-06-22T11:34:37;98045.27;;;34.39;28.21
62038;BME280;47991;42.974;12.082;2023-06-22T11:37:03;98043.60;;;34.32;28.76
62038;BME280;47991;42.974;12.082;2023-06-22T11:39:29;98044.41;;;34.36;29.28
62038;BME280;47991;42.974;12.082;2023-06-22T11:41:56;98040.70;;;34.24;29.64
62038;BME280;47991;42.974;12.082;2023-06-22T11:44:22;98040.68;;;34.17;28.90
62038;BME280;47991;42.974;12.082;2023-06-22T11:46:48;98037.48;;;34.04;30.31
62038;BME280;47991;42.974;12.082;2023-06-22T11:49:14;98036.58;;;34.19;30.44
62038;BME280;47991;42.974;12.082;2023-06-22T11:51:40;98029.02;;;34.37;31.85
62038;BME280;47991;42.974;12.082;2023-06-22T11:54:06;98023.65;;;34.56;30.63
62038;BME280;47991;42.974;12.082;2023-06-22T11:56:33;98024.22;;;34.51;30.66
62038;BME280;47991;42.974;12.082;2023-06-22T11:58:59;98021.23;;;34.47;30.43
62038;BME280;47991;42.974;12.082;2023-06-22T12:01:25;98020.67;;;34.48;30.43
62038;BME280;47991;42.974;12.082;2023-06-22T12:03:51;98018.17;;;34.37;31.24
62038;BME280;47991;42.974;12.082;2023-06-22T12:06:17;98018.16;;;34.36;31.68
62038;BME280;47991;42.974;12.082;2023-06-22T12:08:44;98016.43;;;34.31;31.32
62038;BME280;47991;42.974;12.082;2023-06-22T12:11:10;98017.86;;;34.36;31.13
62038;BME280;47991;42.974;12.082;2023-06-22T12:13:36;98016.30;;;34.29;30.86
62038;BME280;47991;42.974;12.082;2023-06-22T12:16:02;98018.55;;;34.13;30.67
62038;BME280;47991;42.974;12.082;2023-06-22T12:18:29;98018.34;;;34.21;31.10
62038;BME280;47991;42.974;12.082;2023-06-22T12:20:55;98013.89;;;34.27;31.14
62038;BME280;47991;42.974;12.082;2023-06-22T12:23:22;98012.59;;;34.41;31.27
62038;BME280;47991;42.974;12.082;2023-06-22T12:25:48;98011.82;;;34.34;31.63
62038;BME280;47991;42.974;12.082;2023-06-22T12:28:14;98009.58;;;34.21;31.81
62038;BME280;47991;42.974;12.082;2023-06-22T12:30:40;98014.55;;;34.27;31.23
62038;BME280;47991;42.974;12.082;2023-06-22T12:33:07;98008.05;;;34.29;30.76
62038;BME280;47991;42.974;12.082;2023-06-22T12:35:36;98008.93;;;34.31;32.11
62038;BME280;47991;42.974;12.082;2023-06-22T12:38:02;98004.92;;;34.50;30.89
62038;BME280;47991;42.974;12.082;2023-06-22T12:40:29;98002.51;;;34.59;31.03
62038;BME280;47991;42.974;12.082;2023-06-22T12:42:55;97998.71;;;34.73;30.61
62038;BME280;47991;42.974;12.082;2023-06-22T12:45:21;98001.63;;;34.63;31.55
62038;BME280;47991;42.974;12.082;2023-06-22T12:47:48;97998.10;;;34.71;31.31
62038;BME280;47991;42.974;12.082;2023-06-22T12:50:16;98003.98;;;34.77;31.81
62038;BME280;47991;42.974;12.082;2023-06-22T12:52:42;98003.86;;;34.79;31.08
62038;BME280;47991;42.974;12.082;2023-06-22T12:55:08;98001.36;;;34.50;29.39
62038;BME280;47991;42.974;12.082;2023-06-22T12:57:35;97997.68;;;34.11;31.25
62038;BME280;47991;42.974;12.082;2023-06-22T13:00:01;97997.97;;;34.25;31.41
62038;BME280;47991;42.974;12.082;2023-06-22T13:02:27;97996.34;;;34.39;32.31